Time;durP1;ratioP1;P1;durP2;ratioP2;P2;SDS_P1;SDS_P2;PMS_P1;PMS_P2;Temp;Humidity;BMP_temperature;BMP_pressure;BME280_temperature;BME280_humidity;BME280_pressure;Samples;Min_cycle;Max_cycle;Signal;HPM_P1;HPM_P2
2022/07/27 00:01:51;;;;;;;4.60;1.65;;;14.70;99.90;;;;;;5054094;28;20053;-74
2022/07/27 00:04:18;;;;;;;6.75;1.40;;;14.70;99.90;;;;;;5053278;28;20061;-74
2022/07/27 00:06:44;;;;;;;5.00;1.55;;;14.60;99.90;;;;;;5054922;28;20049;-74
2022/07/27 00:09:11;;;;;;;5.30;1.50;;;14.60;99.90;;;;;;5054824;28;20677;-73
2022/07/27 00:11:38;;;;;;;5.68;1.45;;;14.70;99.90;;;;;;5053931;28;20095;-74
2022/07/27 00:14:07;;;;;;;4.72;1.50;;;14.70;99.90;;;;;;5055128;28;20500;-73
2022/07/27 00:16:33;;;;;;;5.18;1.33;;;14.60;99.90;;;;;;5054955;28;20496;-74
2022/07/27 00:19:00;;;;;;;3.78;1.25;;;14.70;99.90;;;;;;5053050;28;20436;-73
2022/07/27 00:21:27;;;;;;;4.47;1.35;;;14.70;99.90;;;;;;5054833;28;20068;-74
2022/07/27 00:23:54;;;;;;;3.67;1.42;;;14.70;99.90;;;;;;5053547;28;20178;-73
2022/07/27 00:26:22;;;;;;;4.68;1.50;;;14.70;99.90;;;;;;5053952;28;20128;-73
2022/07/27 00:28:49;;;;;;;6.22;1.33;;;14.70;99.90;;;;;;5053809;28;20045;-73
2022/07/27 00:31:18;;;;;;;3.75;1.52;;;14.70;99.90;;;;;;5053661;28;20120;-73
2022/07/27 00:33:45;;;;;;;4.82;1.50;;;14.70;99.90;;;;;;5053107;28;20106;-72
2022/07/27 00:36:12;;;;;;;5.95;1.70;;;14.60;99.90;;;;;;5053703;28;20111;-74
2022/07/27 00:38:39;;;;;;;4.65;1.42;;;14.60;99.90;;;;;;5053117;28;20041;-73
2022/07/27 00:41:06;;;;;;;6.63;1.75;;;14.60;99.90;;;;;;5053773;28;20455;-73
2022/07/27 00:43:33;;;;;;;9.63;1.60;;;14.50;99.90;;;;;;5054696;28;20160;-73
2022/07/27 00:46:00;;;;;;;3.70;1.13;;;14.40;99.90;;;;;;5052691;28;20139;-72
2022/07/27 00:48:28;;;;;;;5.47;1.70;;;14.40;99.90;;;;;;5054570;28;20076;-73
2022/07/27 00:50:56;;;;;;;5.63;1.45;;;14.20;99.90;;;;;;5054363;28;20079;-73
2022/07/27 00:53:23;;;;;;;3.67;1.30;;;14.20;99.90;;;;;;5052797;28;20053;-74
2022/07/27 00:55:50;;;;;;;4.75;1.60;;;14.10;99.90;;;;;;5052963;28;20088;-73
2022/07/27 00:58:17;;;;;;;5.32;1.55;;;14.00;99.90;;;;;;5054405;28;20057;-74
2022/07/27 01:00:45;;;;;;;7.03;1.80;;;13.90;99.90;;;;;;5051245;28;20056;-74
2022/07/27 01:03:12;;;;;;;5.65;1.92;;;13.90;99.90;;;;;;5054330;28;20072;-73
2022/07/27 01:05:40;;;;;;;4.28;1.80;;;13.80;99.90;;;;;;5054303;28;20291;-74
2022/07/27 01:08:10;;;;;;;3.58;1.52;;;13.80;99.90;;;;;;5052302;28;20057;-73
2022/07/27 01:10:38;;;;;;;4.05;1.75;;;13.80;99.90;;;;;;5052239;28;20102;-74
2022/07/27 01:13:05;;;;;;;6.40;1.88;;;13.90;99.90;;;;;;5052633;28;20504;-74
2022/07/27 01:15:33;;;;;;;6.88;1.70;;;13.90;99.90;;;;;;5053053;28;20413;-74
2022/07/27 01:18:00;;;;;;;7.00;1.52;;;14.00;99.90;;;;;;5052797;28;20118;-73
2022/07/27 01:20:26;;;;;;;6.43;1.63;;;14.10;99.90;;;;;;5052308;28;20056;-73
2022/07/27 01:22:55;;;;;;;11.15;2.55;;;14.10;99.90;;;;;;5053539;28;20053;-74
2022/07/27 01:25:21;;;;;;;6.65;1.20;;;14.20;99.90;;;;;;5054296;28;20049;-73
2022/07/27 01:27:48;;;;;;;8.77;1.85;;;14.30;99.90;;;;;;5052304;28;20056;-74
2022/07/27 01:32:59;;;;;;;;;;;14.40;99.90;;;;;;5051221;28;20142;-73
2022/07/27 01:35:26;;;;;;;7.38;2.38;;;14.50;99.90;;;;;;5051839;28;19990;-73
2022/07/27 01:37:55;;;;;;;7.45;1.90;;;14.50;99.90;;;;;;5053538;28;20049;-73
2022/07/27 01:40:22;;;;;;;5.07;1.83;;;14.40;99.90;;;;;;5068811;28;20057;-73
2022/07/27 01:42:49;;;;;;;3.70;1.50;;;14.40;99.90;;;;;;5052459;28;20493;-74
2022/07/27 01:45:16;;;;;;;5.05;2.20;;;14.30;99.90;;;;;;5052304;28;20110;-74
2022/07/27 01:47:43;;;;;;;9.85;2.13;;;14.30;99.90;;;;;;5053393;28;20098;-73
2022/07/27 01:50:11;;;;;;;6.70;2.30;;;14.10;99.90;;;;;;5051200;28;20041;-73
2022/07/27 01:52:38;;;;;;;4.47;1.85;;;14.10;99.90;;;;;;5051863;28;20057;-73
2022/07/27 01:55:08;;;;;;;5.82;2.30;;;14.00;99.90;;;;;;5052096;28;20057;-73
2022/07/27 01:57:36;;;;;;;5.10;1.60;;;13.90;99.90;;;;;;5051046;28;20056;-73
2022/07/27 02:00:03;;;;;;;5.50;1.70;;;13.80;99.90;;;;;;5053255;28;20045;-73
2022/07/27 02:02:30;;;;;;;3.60;1.83;;;13.70;99.90;;;;;;5052025;28;20494;-74
2022/07/27 02:04:57;;;;;;;6.78;2.10;;;13.60;99.90;;;;;;5051602;28;20056;-75
2022/07/27 02:07:24;;;;;;;5.05;2.10;;;13.60;99.90;;;;;;5051402;28;20129;-75
2022/07/27 02:09:51;;;;;;;5.60;1.65;;;13.50;99.90;;;;;;5051711;28;20048;-75
2022/07/27 02:12:36;;;;;;;5.20;1.83;;;13.50;99.90;;;;;;5051831;28;20057;-75
2022/07/27 02:15:09;;;;;;;7.05;2.00;;;13.50;99.90;;;;;;5052324;28;20404;-75
2022/07/27 02:17:37;;;;;;;8.40;1.80;;;13.40;99.90;;;;;;5052299;28;20053;-75
2022/07/27 02:20:06;;;;;;;4.18;1.80;;;13.40;99.90;;;;;;5051753;28;20049;-75
2022/07/27 02:22:33;;;;;;;4.15;1.85;;;13.40;99.90;;;;;;5052969;28;20053;-74
2022/07/27 02:25:00;;;;;;;6.97;2.00;;;13.40;99.90;;;;;;5051112;28;20053;-75
2022/07/27 02:27:28;;;;;;;8.18;2.53;;;13.30;99.90;;;;;;5053290;28;20052;-75
2022/07/27 02:29:56;;;;;;;6.72;2.10;;;13.30;99.90;;;;;;5051610;28;20041;-75
2022/07/27 02:32:24;;;;;;;8.85;2.35;;;13.30;99.90;;;;;;5051030;28;20489;-75
2022/07/27 02:34:51;;;;;;;6.93;2.28;;;13.30;99.90;;;;;;5052932;28;20053;-75
2022/07/27 02:37:17;;;;;;;4.70;1.92;;;13.40;99.90;;;;;;5051915;28;20052;-74
2022/07/27 02:39:44;;;;;;;6.82;2.35;;;13.40;99.90;;;;;;5050883;28;20049;-75
2022/07/27 02:42:11;;;;;;;7.88;2.45;;;13.40;99.90;;;;;;5052595;28;20056;-74
2022/07/27 02:44:40;;;;;;;11.85;2.20;;;13.50;99.90;;;;;;5051606;28;20057;-72
2022/07/27 02:47:07;;;;;;;9.38;2.47;;;13.50;99.90;;;;;;5050863;28;20041;-72
2022/07/27 02:49:33;;;;;;;5.05;2.10;;;13.50;99.90;;;;;;5051577;28;20041;-73
2022/07/27 02:52:01;;;;;;;9.35;2.38;;;13.60;99.90;;;;;;5051430;28;20063;-73
2022/07/27 02:54:30;;;;;;;5.60;2.13;;;13.60;99.90;;;;;;5052033;28;20060;-72
2022/07/27 02:56:57;;;;;;;5.80;2.22;;;13.60;99.90;;;;;;5052743;28;20183;-74
2022/07/27 02:59:24;;;;;;;6.05;2.05;;;13.70;99.90;;;;;;5052712;28;20464;-74
2022/07/27 03:01:52;;;;;;;5.63;2.10;;;13.70;99.90;;;;;;5052573;28;20378;-73
2022/07/27 03:04:19;;;;;;;6.22;2.10;;;13.70;99.90;;;;;;5053303;28;20183;-74
2022/07/27 03:06:46;;;;;;;6.57;1.98;;;13.80;99.90;;;;;;5053366;28;20170;-74
2022/07/27 03:09:13;;;;;;;6.38;1.58;;;13.80;99.90;;;;;;5058298;28;20402;-74
2022/07/27 03:11:40;;;;;;;5.10;2.38;;;13.90;99.90;;;;;;5052001;28;20056;-73
2022/07/27 03:14:07;;;;;;;6.43;2.10;;;13.90;99.90;;;;;;5052215;28;20052;-73
2022/07/27 03:16:34;;;;;;;3.97;1.88;;;14.00;99.90;;;;;;5052329;28;20053;-74
2022/07/27 03:19:03;;;;;;;5.32;2.00;;;14.00;99.90;;;;;;5051080;28;20488;-73
2022/07/27 03:21:30;;;;;;;10.13;1.83;;;14.00;99.90;;;;;;5049370;28;20053;-74
2022/07/27 03:23:57;;;;;;;6.55;2.33;;;14.00;99.90;;;;;;5052010;28;20531;-73
2022/07/27 03:26:24;;;;;;;7.57;1.60;;;14.00;99.90;;;;;;5055908;28;20083;-75
2022/07/27 03:28:51;;;;;;;6.72;1.98;;;14.10;99.90;;;;;;5053739;28;20049;-74
2022/07/27 03:31:18;;;;;;;7.28;2.28;;;14.10;99.90;;;;;;5054067;28;20045;-74
2022/07/27 03:33:45;;;;;;;6.88;2.22;;;14.10;99.90;;;;;;5054778;28;20052;-75
2022/07/27 03:36:13;;;;;;;6.60;2.42;;;14.10;99.90;;;;;;5055313;28;20041;-73
2022/07/27 03:38:40;;;;;;;7.28;1.95;;;14.10;99.90;;;;;;5055333;28;20500;-74
2022/07/27 03:41:07;;;;;;;4.85;2.17;;;14.10;99.90;;;;;;5035369;28;20835;-74
2022/07/27 03:43:34;;;;;;;9.93;2.28;;;14.00;99.90;;;;;;5042884;28;20103;-73
2022/07/27 03:46:01;;;;;;;5.63;1.90;;;14.10;99.90;;;;;;5042656;28;20049;-73
2022/07/27 03:48:28;;;;;;;10.43;2.45;;;14.20;99.90;;;;;;5049636;28;20087;-73
2022/07/27 03:50:55;;;;;;;6.03;1.70;;;14.30;99.90;;;;;;5050744;28;20386;-73
2022/07/27 03:53:23;;;;;;;5.82;2.05;;;14.40;99.90;;;;;;5064435;28;20110;-73
2022/07/27 03:55:51;;;;;;;4.47;1.88;;;14.50;99.90;;;;;;5047170;28;20107;-73
2022/07/27 03:58:21;;;;;;;8.45;2.03;;;14.60;99.90;;;;;;5045513;28;20409;-74
2022/07/27 04:00:49;;;;;;;11.25;2.78;;;14.70;99.90;;;;;;5054224;28;20109;-74
2022/07/27 04:03:16;;;;;;;7.25;2.10;;;14.70;99.90;;;;;;5048357;28;20611;-74
2022/07/27 04:05:43;;;;;;;5.05;2.08;;;14.70;99.90;;;;;;5049214;28;20848;-75
2022/07/27 04:08:10;;;;;;;8.48;2.17;;;14.70;99.90;;;;;;5049190;28;20056;-73
2022/07/27 04:10:38;;;;;;;5.75;2.03;;;14.70;99.90;;;;;;5050077;28;20047;-74
2022/07/27 04:13:05;;;;;;;11.18;2.13;;;14.70;99.90;;;;;;5047559;28;20049;-74
2022/07/27 04:15:32;;;;;;;7.97;2.53;;;14.80;99.90;;;;;;5044143;28;20037;-74
2022/07/27 04:17:59;;;;;;;6.55;2.67;;;14.80;99.90;;;;;;5046623;28;20082;-74
2022/07/27 04:20:26;;;;;;;4.78;2.20;;;14.80;99.90;;;;;;5046077;28;20046;-74
2022/07/27 04:22:53;;;;;;;5.97;2.30;;;14.90;99.90;;;;;;5047503;28;20122;-75
2022/07/27 04:25:20;;;;;;;5.53;1.90;;;15.00;99.90;;;;;;5052433;28;20049;-74
2022/07/27 04:27:49;;;;;;;6.07;2.10;;;15.00;99.90;;;;;;5043200;28;20045;-74
2022/07/27 04:30:16;;;;;;;7.07;2.10;;;15.00;99.90;;;;;;5050455;28;20572;-73
2022/07/27 04:32:42;;;;;;;5.35;2.10;;;14.90;99.90;;;;;;5045287;28;20053;-73
2022/07/27 04:35:10;;;;;;;8.32;2.80;;;14.90;99.90;;;;;;5046409;28;20057;-73
2022/07/27 04:37:37;;;;;;;8.73;2.20;;;14.80;99.90;;;;;;5046256;28;20045;-73
2022/07/27 04:40:06;;;;;;;4.63;1.90;;;14.90;99.90;;;;;;5049434;28;20527;-73
2022/07/27 04:42:33;;;;;;;5.75;2.13;;;14.90;99.90;;;;;;5053777;28;20408;-75
2022/07/27 04:45:01;;;;;;;7.72;2.60;;;14.80;99.90;;;;;;5044714;28;20505;-75
2022/07/27 04:47:29;;;;;;;6.63;2.10;;;14.70;99.90;;;;;;5033200;28;20072;-75
2022/07/27 04:49:56;;;;;;;8.38;2.42;;;14.60;99.90;;;;;;5032603;28;20053;-75
2022/07/27 04:52:23;;;;;;;4.78;2.20;;;14.50;99.90;;;;;;5031065;28;20053;-75
2022/07/27 04:54:51;;;;;;;14.70;3.55;;;14.40;99.90;;;;;;5037463;28;20254;-74
2022/07/27 04:57:18;;;;;;;10.35;3.55;;;14.40;99.90;;;;;;5033294;28;20137;-75
2022/07/27 04:59:45;;;;;;;6.60;2.65;;;14.40;99.90;;;;;;5031711;28;20115;-74
2022/07/27 05:02:14;;;;;;;4.53;2.20;;;14.50;99.90;;;;;;5047803;28;20057;-74
2022/07/27 05:04:40;;;;;;;12.90;2.72;;;14.50;99.90;;;;;;5039126;28;20052;-73
2022/07/27 05:07:07;;;;;;;6.47;2.15;;;14.60;99.90;;;;;;5040416;28;20122;-76
2022/07/27 05:09:34;;;;;;;9.35;2.28;;;14.70;99.90;;;;;;5051522;28;20102;-75
2022/07/27 05:12:01;;;;;;;7.93;2.10;;;14.90;99.90;;;;;;5043246;28;20053;-74
2022/07/27 05:14:28;;;;;;;10.20;2.58;;;15.10;99.90;;;;;;5041986;28;20045;-75
2022/07/27 05:16:55;;;;;;;5.82;2.25;;;15.30;99.90;;;;;;5049994;28;20106;-74
2022/07/27 05:19:23;;;;;;;5.32;2.10;;;15.30;99.90;;;;;;5048526;28;20057;-75
2022/07/27 05:21:50;;;;;;;5.25;1.90;;;15.30;99.90;;;;;;5047234;28;20045;-74
2022/07/27 05:24:17;;;;;;;6.40;1.50;;;15.30;99.90;;;;;;5048310;28;20048;-73
2022/07/27 05:26:44;;;;;;;3.35;1.42;;;15.40;99.90;;;;;;5047777;28;20049;-74
2022/07/27 05:29:11;;;;;;;6.75;1.83;;;15.40;99.90;;;;;;5049837;28;20102;-74
2022/07/27 05:31:37;;;;;;;4.95;1.60;;;15.50;99.90;;;;;;5047318;28;20125;-75
2022/07/27 05:34:04;;;;;;;7.03;2.33;;;15.60;99.90;;;;;;5050367;28;20053;-75
2022/07/27 05:36:32;;;;;;;6.85;1.85;;;15.50;99.90;;;;;;5044195;28;20045;-74
2022/07/27 05:38:59;;;;;;;6.70;1.80;;;15.50;99.90;;;;;;5044146;28;20041;-74
2022/07/27 05:41:27;;;;;;;7.97;2.67;;;15.70;99.90;;;;;;5047250;28;20037;-74
2022/07/27 05:43:55;;;;;;;7.00;2.13;;;15.80;99.90;;;;;;5046001;28;20075;-74
2022/07/27 05:46:22;;;;;;;13.13;2.17;;;15.80;99.90;;;;;;5049273;28;20114;-74
2022/07/27 05:48:49;;;;;;;16.70;2.28;;;15.90;99.90;;;;;;5045082;28;20052;-74
2022/07/27 05:51:16;;;;;;;8.25;1.65;;;16.00;99.90;;;;;;5061274;28;20044;-74
2022/07/27 05:53:45;;;;;;;6.30;1.90;;;16.10;99.90;;;;;;5041720;28;20103;-74
2022/07/27 05:56:11;;;;;;;7.13;1.95;;;16.00;99.90;;;;;;5048686;28;20064;-75
2022/07/27 05:58:38;;;;;;;3.35;1.38;;;16.10;99.90;;;;;;5047206;28;20052;-74
2022/07/27 06:01:05;;;;;;;4.88;1.70;;;16.20;99.90;;;;;;5045482;28;20103;-75
2022/07/27 06:03:32;;;;;;;3.00;1.50;;;16.30;99.90;;;;;;5042886;28;20052;-73
2022/07/27 06:08:45;;;;;;;8.10;1.67;;;16.50;99.90;;;;;;5041626;28;20045;-75
2022/07/27 06:11:13;;;;;;;8.40;2.40;;;16.70;99.90;;;;;;5044673;28;20063;-74
2022/07/27 06:13:40;;;;;;;8.35;2.08;;;16.90;99.90;;;;;;5044998;28;20053;-75
2022/07/27 06:16:07;;;;;;;9.30;2.30;;;16.90;99.90;;;;;;5051203;28;20064;-74
2022/07/27 06:18:35;;;;;;;5.97;2.10;;;17.00;99.90;;;;;;5045027;28;20037;-74
2022/07/27 06:21:01;;;;;;;6.75;2.00;;;17.20;99.90;;;;;;5047189;28;20045;-74
2022/07/27 06:23:29;;;;;;;7.97;2.00;;;17.60;99.90;;;;;;5039902;28;20045;-74
2022/07/27 06:25:57;;;;;;;6.05;2.08;;;17.80;99.90;;;;;;5047745;28;20493;-75
2022/07/27 06:28:24;;;;;;;6.40;1.55;;;18.00;99.90;;;;;;5044523;28;20056;-74
2022/07/27 06:30:52;;;;;;;7.25;1.95;;;18.10;99.90;;;;;;5044012;28;20134;-74
2022/07/27 06:33:26;;;;;;;7.03;1.70;;;18.20;99.90;;;;;;5041586;28;20068;-74
2022/07/27 06:35:53;;;;;;;6.28;1.85;;;18.30;99.90;;;;;;5046467;28;20151;-74
2022/07/27 06:38:20;;;;;;;12.00;1.60;;;18.40;99.90;;;;;;5046138;28;20079;-74
2022/07/27 06:40:51;;;;;;;5.20;1.50;;;18.50;99.90;;;;;;5045110;28;20075;-74
2022/07/27 06:43:20;;;;;;;5.50;1.50;;;18.80;99.90;;;;;;5050107;28;20049;-74
2022/07/27 06:45:47;;;;;;;7.95;1.70;;;19.00;99.90;;;;;;5062238;28;20053;-75
2022/07/27 06:48:14;;;;;;;8.52;2.00;;;19.20;99.90;;;;;;5043404;28;20060;-75
2022/07/27 06:50:41;;;;;;;5.57;1.30;;;19.60;99.90;;;;;;5047517;28;20052;-75
2022/07/27 06:53:08;;;;;;;8.40;1.88;;;19.80;99.90;;;;;;5048504;28;20048;-74
2022/07/27 06:55:35;;;;;;;10.70;1.77;;;20.20;99.70;;;;;;5048853;28;20469;-75
2022/07/27 06:58:02;;;;;;;5.25;1.33;;;20.60;99.00;;;;;;5046389;28;20123;-74
2022/07/27 07:00:30;;;;;;;8.10;1.77;;;21.10;98.50;;;;;;5049670;28;20057;-75
2022/07/27 07:02:59;;;;;;;5.82;1.90;;;21.40;97.60;;;;;;5050704;28;20115;-75
2022/07/27 07:05:26;;;;;;;3.25;1.33;;;21.80;96.70;;;;;;5051711;28;20122;-74
2022/07/27 07:07:54;;;;;;;5.20;1.33;;;22.40;96.20;;;;;;5049099;28;20551;-75
2022/07/27 07:10:21;;;;;;;3.95;1.13;;;22.60;95.60;;;;;;5051719;28;20053;-73
2022/07/27 07:12:50;;;;;;;6.10;1.73;;;22.30;95.70;;;;;;5048100;28;20447;-75
2022/07/27 07:15:17;;;;;;;7.72;1.63;;;21.60;95.70;;;;;;5050570;28;20136;-75
2022/07/27 07:17:46;;;;;;;5.38;1.67;;;21.20;96.20;;;;;;5048658;28;20066;-74
2022/07/27 07:20:13;;;;;;;5.60;1.55;;;21.40;96.20;;;;;;5054005;28;20049;-75
2022/07/27 07:22:39;;;;;;;7.72;1.63;;;21.70;95.60;;;;;;5052143;28;20052;-74
2022/07/27 07:25:07;;;;;;;5.85;1.63;;;21.50;94.90;;;;;;5054223;28;20049;-75
2022/07/27 07:27:34;;;;;;;4.45;1.20;;;21.20;94.90;;;;;;5054283;28;20126;-75
2022/07/27 07:30:01;;;;;;;4.50;1.30;;;20.90;95.00;;;;;;5054025;28;20078;-74
2022/07/27 07:32:29;;;;;;;6.65;1.50;;;20.60;95.30;;;;;;5054024;28;20057;-73
2022/07/27 07:34:57;;;;;;;4.38;1.80;;;20.30;95.50;;;;;;5056899;28;20045;-75
2022/07/27 07:37:24;;;;;;;10.25;1.80;;;19.90;95.80;;;;;;5058404;28;20525;-73
2022/07/27 07:39:51;;;;;;;8.70;1.80;;;19.60;96.30;;;;;;5073646;28;20106;-74
2022/07/27 07:42:18;;;;;;;9.95;1.98;;;19.20;97.30;;;;;;5090979;28;20496;-75
2022/07/27 07:44:45;;;;;;;6.10;1.50;;;18.90;99.50;;;;;;5055191;28;20052;-74
2022/07/27 07:47:12;;;;;;;8.05;2.00;;;18.70;99.90;;;;;;5054515;28;20642;-75
2022/07/27 07:49:39;;;;;;;11.27;1.77;;;18.50;99.90;;;;;;5053876;28;20055;-75
2022/07/27 07:52:07;;;;;;;5.68;1.77;;;18.30;99.90;;;;;;5053494;28;20056;-73
2022/07/27 07:54:34;;;;;;;5.38;2.08;;;18.10;99.90;;;;;;5053897;28;20055;-74
2022/07/27 07:57:01;;;;;;;8.55;2.08;;;18.00;99.90;;;;;;5054615;28;20103;-73
2022/07/27 07:59:28;;;;;;;5.97;1.95;;;17.80;99.90;;;;;;5054710;28;20049;-75
2022/07/27 08:01:55;;;;;;;10.10;2.30;;;17.70;99.90;;;;;;5053142;28;20053;-74
2022/07/27 08:04:22;;;;;;;6.13;2.03;;;17.60;99.90;;;;;;5053468;28;20393;-74
2022/07/27 08:06:49;;;;;;;7.32;1.70;;;17.70;99.90;;;;;;5055431;28;20111;-74
2022/07/27 08:09:20;;;;;;;5.38;1.50;;;17.70;99.90;;;;;;5065131;28;20052;-75
2022/07/27 08:11:47;;;;;;;5.22;1.95;;;17.80;99.90;;;;;;5074649;28;20053;-74
2022/07/27 08:14:14;;;;;;;4.93;2.10;;;17.80;99.90;;;;;;5064686;28;20048;-74
2022/07/27 08:16:40;;;;;;;4.32;1.73;;;17.80;99.90;;;;;;5053423;28;20061;-74
2022/07/27 08:19:08;;;;;;;6.35;1.70;;;17.90;99.90;;;;;;5054834;28;20489;-74
2022/07/27 08:21:35;;;;;;;7.38;1.50;;;18.00;99.90;;;;;;5053030;28;20045;-74
2022/07/27 08:24:01;;;;;;;6.15;1.35;;;18.10;99.90;;;;;;5053337;28;20052;-74
2022/07/27 08:26:30;;;;;;;3.60;1.15;;;18.20;99.90;;;;;;5053509;28;20052;-75
2022/07/27 08:28:56;;;;;;;6.30;1.88;;;18.30;99.90;;;;;;5053620;28;20455;-73
2022/07/27 08:31:23;;;;;;;6.82;1.60;;;18.30;99.90;;;;;;5054331;28;20053;-74
2022/07/27 08:33:50;;;;;;;5.55;2.22;;;18.30;99.90;;;;;;5055442;28;20057;-74
2022/07/27 08:36:17;;;;;;;5.57;1.40;;;18.50;99.90;;;;;;5052976;28;20095;-74
2022/07/27 08:38:44;;;;;;;5.05;1.58;;;18.50;99.90;;;;;;5053345;28;20060;-74
2022/07/27 08:41:14;;;;;;;4.97;1.50;;;18.60;99.90;;;;;;5054484;28;20074;-75
2022/07/27 08:43:43;;;;;;;4.10;1.57;;;18.70;99.90;;;;;;5053108;28;20052;-74
2022/07/27 08:46:11;;;;;;;8.70;1.35;;;18.90;99.90;;;;;;5052276;28;20072;-74
2022/07/27 08:48:39;;;;;;;6.35;1.15;;;19.20;99.90;;;;;;5054793;28;20057;-72
2022/07/27 08:51:06;;;;;;;4.30;1.25;;;19.40;99.40;;;;;;5057234;28;20048;-73
2022/07/27 08:53:34;;;;;;;2.50;1.10;;;19.80;99.00;;;;;;5051497;28;20080;-74
2022/07/27 08:56:01;;;;;;;4.53;1.33;;;20.10;98.30;;;;;;5065641;28;20556;-73
2022/07/27 08:58:28;;;;;;;3.80;1.30;;;20.50;97.10;;;;;;5060520;28;20125;-73
2022/07/27 09:00:57;;;;;;;3.53;1.10;;;20.80;96.00;;;;;;5054151;28;20451;-73
2022/07/27 09:03:24;;;;;;;9.75;1.80;;;21.20;95.50;;;;;;5053298;28;20102;-74
2022/07/27 09:05:53;;;;;;;8.25;1.40;;;21.70;94.90;;;;;;5053390;28;20050;-75
2022/07/27 09:08:22;;;;;;;4.90;1.42;;;22.10;94.10;;;;;;5054418;28;20052;-74
2022/07/27 09:10:50;;;;;;;5.55;1.40;;;22.70;93.50;;;;;;5070141;28;20057;-74
2022/07/27 09:13:20;;;;;;;4.35;1.15;;;23.00;92.60;;;;;;5051908;28;20440;-75
2022/07/27 09:15:48;;;;;;;3.88;1.20;;;23.50;91.70;;;;;;5052869;28;20095;-74
2022/07/27 09:18:21;;;;;;;10.35;1.30;;;24.10;91.30;;;;;;5053682;28;20555;-75
2022/07/27 09:21:07;;;;;;;5.60;1.58;;;24.60;88.80;;;;;;5052076;28;20068;-72
2022/07/27 09:23:34;;;;;;;3.47;1.20;;;24.70;84.90;;;;;;5051343;28;20136;-75
2022/07/27 09:26:12;;;;;;;5.50;1.10;;;24.40;86.90;;;;;;5051262;28;20057;-74
2022/07/27 09:28:39;;;;;;;2.95;0.90;;;24.20;85.00;;;;;;5051747;28;20542;-74
2022/07/27 09:31:07;;;;;;;5.05;1.00;;;24.20;85.70;;;;;;5051886;28;20049;-75
2022/07/27 09:33:43;;;;;;;4.07;0.77;;;24.20;84.60;;;;;;5053105;28;20128;-75
2022/07/27 09:36:11;;;;;;;4.55;0.90;;;24.10;83.30;;;;;;5053548;28;20076;-75
2022/07/27 09:38:38;;;;;;;5.03;1.13;;;24.10;84.80;;;;;;5052048;28;20060;-73
2022/07/27 09:41:06;;;;;;;2.47;0.90;;;24.30;84.80;;;;;;5051390;28;20052;-75
2022/07/27 09:43:46;;;;;;;3.78;1.10;;;24.60;83.40;;;;;;5051564;28;20048;-75
2022/07/27 09:46:13;;;;;;;5.25;1.00;;;25.00;81.70;;;;;;5052703;28;20136;-73
2022/07/27 09:48:40;;;;;;;4.47;1.20;;;25.30;81.20;;;;;;5051656;28;20056;-75
2022/07/27 09:51:10;;;;;;;3.13;0.98;;;25.50;81.20;;;;;;5051803;28;20080;-74
2022/07/27 09:53:37;;;;;;;;;;;25.40;79.90;;;;;;5052033;28;20056;-75
2022/07/27 09:56:06;;;;;;;4.25;1.13;;;25.20;78.10;;;;;;5051839;28;19920;-75
2022/07/27 09:58:55;;;;;;;2.73;0.97;;;25.10;81.00;;;;;;5051778;28;20126;-75
2022/07/27 10:01:25;;;;;;;3.65;0.73;;;25.10;80.10;;;;;;5048602;28;20378;-76
2022/07/27 10:03:55;;;;;;;4.38;1.08;;;25.10;81.40;;;;;;5013606;28;20090;-75
2022/07/27 10:06:23;;;;;;;;;;;25.20;81.30;;;;;;5034918;28;20088;-74
2022/07/27 10:08:52;;;;;;;3.28;0.77;;;25.20;78.20;;;;;;5031863;28;19975;-75
2022/07/27 10:11:20;;;;;;;3.55;1.05;;;25.40;79.90;;;;;;5037626;28;20065;-74
2022/07/27 10:13:47;;;;;;;3.22;0.80;;;25.80;79.40;;;;;;5010862;28;20579;-75
2022/07/27 10:16:17;;;;;;;3.00;1.48;;;26.10;78.50;;;;;;5001220;28;20431;-77
2022/07/27 10:18:52;;;;;;;;;;;26.00;77.90;;;;;;5004661;28;20100;-75
2022/07/27 10:21:20;;;;;;;3.22;1.08;;;25.50;77.00;;;;;;5007620;28;19981;-76
2022/07/27 10:23:56;;;;;;;2.35;1.02;;;25.30;78.20;;;;;;4991092;28;20050;-74
2022/07/27 10:26:30;;;;;;;6.38;0.88;;;24.80;76.40;;;;;;4998751;28;20046;-74
2022/07/27 10:28:59;;;;;;;2.40;0.88;;;24.40;77.80;;;;;;4998812;28;20049;-72
2022/07/27 10:31:27;;;;;;;4.85;0.90;;;24.00;78.10;;;;;;5007637;28;20050;-75
2022/07/27 10:33:56;;;;;;;3.70;0.98;;;23.80;78.30;;;;;;5000744;28;20055;-75
2022/07/27 10:36:46;;;;;;;3.25;0.93;;;23.50;78.60;;;;;;5003633;28;20058;-75
2022/07/27 10:39:27;;;;;;;2.35;0.80;;;23.50;78.80;;;;;;5001937;28;20112;-75
2022/07/27 10:42:14;;;;;;;3.90;0.75;;;23.50;79.20;;;;;;5004664;28;20053;-75
2022/07/27 10:44:56;;;;;;;3.40;0.70;;;23.50;79.20;;;;;;5003801;28;20058;-74
2022/07/27 10:47:36;;;;;;;3.05;0.80;;;24.40;77.80;;;;;;4999405;28;20054;-75
2022/07/27 10:50:24;;;;;;;7.85;0.93;;;24.80;76.30;;;;;;5002341;28;20531;-75
2022/07/27 10:52:53;;;;;;;5.53;0.80;;;24.80;77.20;;;;;;4994784;28;20105;-74
2022/07/27 10:55:44;;;;;;;2.58;0.80;;;25.40;77.20;;;;;;5005635;28;20108;-75
2022/07/27 10:58:57;;;;;;;2.63;0.75;;;26.50;74.90;;;;;;5006045;28;20108;-75
2022/07/27 11:01:24;;;;;;;2.00;0.82;;;27.40;71.40;;;;;;4994919;28;20054;-74
2022/07/27 11:03:55;;;;;;;2.13;0.70;;;27.90;73.10;;;;;;4997619;28;20113;-75
2022/07/27 11:06:30;;;;;;;1.92;0.80;;;27.40;72.40;;;;;;4998248;28;20137;-74
2022/07/27 11:08:59;;;;;;;2.67;0.98;;;27.00;73.00;;;;;;5009682;28;20060;-74
2022/07/27 11:11:33;;;;;;;2.53;0.70;;;27.20;74.30;;;;;;4997407;28;20050;-74
2022/07/27 11:14:00;;;;;;;1.42;0.60;;;27.70;73.40;;;;;;5034070;28;20061;-75
2022/07/27 11:16:30;;;;;;;1.70;0.52;;;27.60;71.90;;;;;;5034639;28;20045;-75
2022/07/27 11:19:02;;;;;;;;;;;27.20;71.20;;;;;;5034683;28;20053;-74
2022/07/27 11:21:32;;;;;;;5.38;0.93;;;26.50;71.10;;;;;;5034417;28;20460;-75
2022/07/27 11:24:02;;;;;;;2.40;0.95;;;26.10;73.00;;;;;;5044016;28;20095;-76
2022/07/27 11:26:37;;;;;;;5.10;0.90;;;25.60;73.60;;;;;;5033053;28;20052;-75
2022/07/27 11:29:07;;;;;;;3.30;0.88;;;25.20;74.60;;;;;;5043144;28;20232;-76
2022/07/27 11:31:35;;;;;;;2.85;0.95;;;24.80;75.60;;;;;;5041768;28;20505;-75
2022/07/27 11:34:03;;;;;;;5.18;0.85;;;24.80;77.00;;;;;;5033332;28;20052;-75
2022/07/27 11:36:38;;;;;;;3.80;0.95;;;25.30;76.80;;;;;;5035736;28;20060;-75
2022/07/27 11:39:07;;;;;;;4.78;1.00;;;25.50;75.70;;;;;;5065750;28;20045;-75
2022/07/27 11:41:37;;;;;;;3.05;0.90;;;25.30;76.40;;;;;;5039583;28;20053;-75
2022/07/27 11:44:06;;;;;;;5.38;1.08;;;25.20;76.60;;;;;;5048409;28;20053;-74
2022/07/27 11:46:38;;;;;;;2.67;0.68;;;25.10;76.80;;;;;;5041778;28;20053;-75
2022/07/27 11:49:07;;;;;;;2.88;0.90;;;24.90;75.90;;;;;;5032084;28;20528;-75
2022/07/27 11:51:35;;;;;;;3.25;1.00;;;24.90;75.50;;;;;;5034028;28;20482;-75
2022/07/27 11:54:04;;;;;;;3.17;0.98;;;24.80;75.50;;;;;;5031960;28;20049;-76
2022/07/27 11:56:33;;;;;;;3.58;0.90;;;24.80;75.90;;;;;;5033317;28;20077;-75
2022/07/27 11:59:10;;;;;;;4.27;0.70;;;24.70;76.10;;;;;;5034075;28;20141;-75
2022/07/27 12:01:39;;;;;;;2.50;0.68;;;25.70;76.50;;;;;;5044453;28;20314;-75
2022/07/27 12:04:21;;;;;;;3.00;0.87;;;26.20;76.20;;;;;;5045012;28;20159;-76
2022/07/27 12:07:15;;;;;;;5.60;1.02;;;26.00;75.20;;;;;;5036839;28;20063;-75
2022/07/27 12:09:45;;;;;;;4.82;1.20;;;26.10;76.10;;;;;;5023984;28;20469;-74
2022/07/27 12:12:13;;;;;;;;;;;26.20;76.70;;;;;;5035694;28;20053;-74
2022/07/27 12:14:45;;;;;;;6.65;1.23;;;26.60;75.50;;;;;;5041037;28;20460;-74
2022/07/27 12:17:17;;;;;;;4.53;0.93;;;26.30;75.90;;;;;;5038353;28;20124;-74
2022/07/27 12:19:51;;;;;;;5.15;0.90;;;26.10;76.50;;;;;;5036104;28;20129;-75
2022/07/27 12:22:23;;;;;;;5.32;1.80;;;25.80;75.30;;;;;;5035274;28;20100;-75
2022/07/27 12:24:50;;;;;;;3.38;1.00;;;25.70;75.30;;;;;;5034468;28;20140;-75
2022/07/27 12:27:17;;;;;;;3.78;1.00;;;25.70;75.80;;;;;;5046460;28;20045;-75
2022/07/27 12:30:08;;;;;;;7.15;1.20;;;25.70;75.30;;;;;;5037284;28;20099;-75
2022/07/27 12:32:36;;;;;;;15.57;4.47;;;26.60;74.40;;;;;;5033615;28;20139;-75
2022/07/27 12:35:17;;;;;;;3.88;0.90;;;27.70;74.50;;;;;;5033040;28;20083;-75
2022/07/27 12:37:45;;;;;;;4.22;1.35;;;28.00;72.20;;;;;;5033894;28;20057;-75
2022/07/27 12:40:14;;;;;;;6.82;1.00;;;27.70;72.80;;;;;;5032726;28;20045;-73
2022/07/27 12:42:41;;;;;;;3.00;1.00;;;27.40;72.70;;;;;;5046159;28;20092;-74
2022/07/27 12:45:16;;;;;;;4.25;1.00;;;26.90;72.80;;;;;;5041717;28;20107;-74
2022/07/27 12:47:43;;;;;;;4.30;0.90;;;26.40;72.70;;;;;;5038867;28;20050;-75
2022/07/27 12:50:12;;;;;;;4.75;0.95;;;25.90;74.30;;;;;;5050320;28;20057;-75
2022/07/27 12:52:43;;;;;;;3.03;0.80;;;25.60;74.60;;;;;;5046586;28;20463;-75
2022/07/27 12:55:10;;;;;;;5.10;0.82;;;25.30;74.90;;;;;;5054304;28;20045;-75
2022/07/27 12:57:38;;;;;;;3.72;1.10;;;25.50;74.90;;;;;;5032950;28;20045;-75
2022/07/27 13:00:07;;;;;;;3.95;0.77;;;25.70;74.40;;;;;;5036465;28;20057;-76
2022/07/27 13:02:36;;;;;;;3.47;1.10;;;25.70;73.70;;;;;;5033405;28;20065;-75